Time;durP1;ratioP1;P1;durP2;ratioP2;P2;SDS_P1;SDS_P2;PMS_P1;PMS_P2;Temp;Humidity;BMP_temperature;BMP_pressure;BME280_temperature;BME280_humidity;BME280_pressure;Samples;Min_cycle;Max_cycle;Signal;HPM_P1;HPM_P2
2022/03/31 00:00:05;;;;;;;4.13;2.00;;;3.50;99.90;;;;;;5056441;28;20385;-57
2022/03/31 00:02:38;;;;;;;8.40;1.85;;;3.40;99.90;;;;;;5047372;28;20148;-57
2022/03/31 00:05:05;;;;;;;6.22;3.15;;;3.50;99.90;;;;;;5056944;28;20046;-57
2022/03/31 00:07:31;;;;;;;5.85;2.58;;;3.50;99.90;;;;;;5045473;28;20148;-59
2022/03/31 00:09:57;;;;;;;5.00;2.17;;;3.50;99.90;;;;;;5041678;28;20045;-57
2022/03/31 00:12:23;;;;;;;5.22;1.80;;;3.50;99.90;;;;;;5047502;28;20087;-58
2022/03/31 00:14:49;;;;;;;6.82;2.58;;;3.50;99.90;;;;;;5057414;28;20045;-57
2022/03/31 00:17:15;;;;;;;5.75;2.53;;;3.50;99.90;;;;;;5030555;28;20050;-57
2022/03/31 00:19:42;;;;;;;7.82;1.77;;;3.50;99.90;;;;;;5045306;28;20144;-58
2022/03/31 00:22:08;;;;;;;5.22;1.92;;;3.50;99.90;;;;;;5004888;28;20053;-58
2022/03/31 00:24:34;;;;;;;5.70;2.30;;;3.50;99.90;;;;;;5048218;28;20407;-57
2022/03/31 00:27:00;;;;;;;5.00;2.13;;;3.50;99.90;;;;;;5051050;28;20068;-58
2022/03/31 00:29:27;;;;;;;7.35;2.28;;;3.50;99.90;;;;;;5037706;28;20505;-57
2022/03/31 00:31:55;;;;;;;7.50;2.05;;;3.50;99.90;;;;;;5036188;28;20072;-57
2022/03/31 00:34:21;;;;;;;6.65;2.20;;;3.50;99.90;;;;;;5053544;28;20041;-58
2022/03/31 00:36:47;;;;;;;3.88;1.73;;;3.50;99.90;;;;;;5006633;28;20567;-57
2022/03/31 00:41:59;;;;;;;6.00;2.30;;;3.50;99.90;;;;;;5044770;28;20467;-58
2022/03/31 00:44:26;;;;;;;7.10;2.22;;;3.50;99.90;;;;;;5041582;28;20088;-58
2022/03/31 00:46:54;;;;;;;5.03;1.90;;;3.50;99.90;;;;;;5041836;28;20053;-57
2022/03/31 00:49:21;;;;;;;7.10;2.58;;;3.50;99.90;;;;;;5040441;28;20049;-58
2022/03/31 00:51:49;;;;;;;8.93;2.20;;;3.40;99.90;;;;;;5040469;28;20532;-57
2022/03/31 00:54:17;;;;;;;5.55;2.08;;;3.40;99.90;;;;;;5047945;28;20041;-59
2022/03/31 00:56:44;;;;;;;7.90;2.70;;;3.40;99.90;;;;;;5030921;28;20411;-60
2022/03/31 00:59:11;;;;;;;4.80;2.30;;;3.40;99.90;;;;;;5054757;28;20054;-57
2022/03/31 01:01:39;;;;;;;5.20;2.70;;;3.50;99.90;;;;;;5043412;28;20052;-58
2022/03/31 01:04:06;;;;;;;6.50;3.53;;;3.40;99.90;;;;;;5041539;28;20052;-59
2022/03/31 01:06:34;;;;;;;8.30;4.78;;;3.50;99.90;;;;;;5023081;28;20096;-58
2022/03/31 01:09:00;;;;;;;8.05;5.40;;;3.50;99.90;;;;;;5040737;28;20052;-58
2022/03/31 01:11:28;;;;;;;9.13;4.05;;;3.50;99.90;;;;;;5030379;28;20125;-58
2022/03/31 01:13:55;;;;;;;7.85;3.47;;;3.40;99.90;;;;;;5024597;28;20037;-58
2022/03/31 01:16:21;;;;;;;6.57;3.63;;;3.50;99.90;;;;;;5049976;28;20104;-59
2022/03/31 01:18:48;;;;;;;4.28;2.50;;;3.50;99.90;;;;;;5049349;28;20048;-59
2022/03/31 01:21:15;;;;;;;6.38;2.50;;;3.50;99.90;;;;;;5040504;28;20049;-59
2022/03/31 01:23:41;;;;;;;5.75;2.00;;;3.40;99.90;;;;;;5050860;28;20044;-59
2022/03/31 01:26:11;;;;;;;4.60;1.98;;;3.40;99.90;;;;;;5057311;28;20037;-59
2022/03/31 01:28:43;;;;;;;5.68;1.90;;;3.40;99.90;;;;;;5055289;28;20102;-58
2022/03/31 01:31:10;;;;;;;6.15;2.33;;;3.40;99.90;;;;;;5047026;28;20073;-58
2022/03/31 01:33:37;;;;;;;4.78;1.95;;;3.40;99.90;;;;;;5035796;28;20047;-59
2022/03/31 01:36:05;;;;;;;6.28;2.50;;;3.30;99.90;;;;;;5023690;28;20052;-58
2022/03/31 01:38:31;;;;;;;4.50;1.52;;;3.30;99.90;;;;;;5037284;28;21452;-59
2022/03/31 01:40:58;;;;;;;4.68;2.10;;;3.30;99.90;;;;;;5048564;28;20049;-58
2022/03/31 01:43:24;;;;;;;6.60;2.75;;;3.30;99.90;;;;;;5044927;28;20057;-57
2022/03/31 01:45:52;;;;;;;6.53;2.70;;;3.30;99.90;;;;;;5043374;28;20178;-57
2022/03/31 01:48:19;;;;;;;5.10;2.90;;;3.30;99.90;;;;;;5026877;28;20045;-58
2022/03/31 01:50:45;;;;;;;5.13;2.58;;;3.20;99.90;;;;;;5037027;28;20120;-57
2022/03/31 01:53:14;;;;;;;5.10;3.03;;;3.20;99.90;;;;;;5038120;28;20043;-58
2022/03/31 01:55:40;;;;;;;6.82;2.95;;;3.20;99.90;;;;;;5045718;28;20378;-57
2022/03/31 01:58:07;;;;;;;6.68;3.75;;;3.20;99.90;;;;;;5035862;28;20555;-57
2022/03/31 02:00:35;;;;;;;5.63;3.42;;;3.20;99.90;;;;;;5022224;28;20044;-59
2022/03/31 02:03:01;;;;;;;7.65;3.38;;;3.10;99.90;;;;;;5015408;28;20125;-59
2022/03/31 02:05:28;;;;;;;11.63;3.83;;;3.10;99.90;;;;;;5049266;28;20044;-59
2022/03/31 02:07:57;;;;;;;6.35;3.60;;;3.10;99.90;;;;;;5008973;28;20091;-59
2022/03/31 02:10:25;;;;;;;5.57;2.83;;;3.10;99.90;;;;;;5036519;28;20142;-59
2022/03/31 02:12:51;;;;;;;5.05;2.80;;;3.10;99.90;;;;;;5022572;28;20048;-59
2022/03/31 02:15:20;;;;;;;4.97;2.97;;;3.10;99.90;;;;;;5036643;28;20073;-59
2022/03/31 02:17:47;;;;;;;8.10;3.22;;;3.10;99.90;;;;;;5051296;28;20040;-59
2022/03/31 02:20:13;;;;;;;3.45;2.58;;;3.10;99.90;;;;;;5047598;28;20071;-59
2022/03/31 02:22:40;;;;;;;7.55;2.55;;;3.10;99.90;;;;;;5030171;28;20045;-59
2022/03/31 02:25:10;;;;;;;7.55;2.45;;;3.00;99.90;;;;;;5050743;28;20047;-59
2022/03/31 02:27:37;;;;;;;5.55;2.53;;;3.00;99.90;;;;;;5043277;28;20569;-55
2022/03/31 02:30:05;;;;;;;5.18;2.95;;;3.00;99.90;;;;;;5051496;28;20060;-57
2022/03/31 02:32:31;;;;;;;4.38;2.58;;;3.00;99.90;;;;;;5041336;28;20044;-58
2022/03/31 02:34:57;;;;;;;5.88;2.70;;;3.00;99.90;;;;;;5057246;28;20052;-57
2022/03/31 02:37:24;;;;;;;4.82;3.00;;;3.00;99.90;;;;;;5017384;28;20045;-57
2022/03/31 02:39:51;;;;;;;7.55;2.90;;;3.00;99.90;;;;;;5039398;28;20056;-57
2022/03/31 02:42:17;;;;;;;6.00;2.55;;;3.00;99.90;;;;;;5041386;28;20048;-57
2022/03/31 02:44:44;;;;;;;7.97;3.47;;;3.00;99.90;;;;;;5034553;28;20554;-57
2022/03/31 02:47:11;;;;;;;5.60;2.90;;;3.10;99.90;;;;;;5050646;28;20128;-59
2022/03/31 02:49:38;;;;;;;4.78;2.78;;;3.10;99.90;;;;;;5052807;28;20052;-58
2022/03/31 02:52:05;;;;;;;7.25;2.80;;;3.10;99.90;;;;;;4973101;28;20053;-58
2022/03/31 02:57:32;;;;;;;6.77;3.10;;;3.10;99.90;;;;;;5024289;28;20045;-58
2022/03/31 02:59:58;;;;;;;6.90;3.10;;;3.00;99.90;;;;;;5041548;28;20296;-57
2022/03/31 03:02:24;;;;;;;4.95;3.13;;;3.10;99.90;;;;;;5042650;28;20092;-57
2022/03/31 03:04:50;;;;;;;6.25;3.10;;;3.10;99.90;;;;;;5041528;28;20509;-57
2022/03/31 03:07:16;;;;;;;5.63;3.42;;;3.10;99.90;;;;;;5042982;28;20068;-58
2022/03/31 03:09:43;;;;;;;8.73;3.65;;;3.10;99.90;;;;;;5038983;28;20516;-59
2022/03/31 03:12:10;;;;;;;7.97;4.07;;;3.10;99.90;;;;;;5034927;28;20045;-59
2022/03/31 03:14:36;;;;;;;6.88;3.67;;;3.10;99.90;;;;;;5039153;28;20080;-60
2022/03/31 03:17:03;;;;;;;6.22;3.70;;;3.00;99.90;;;;;;5025836;28;20128;-57
2022/03/31 03:19:29;;;;;;;10.63;4.78;;;3.10;99.90;;;;;;5039335;28;20053;-57
2022/03/31 03:21:55;;;;;;;8.80;5.22;;;3.10;99.90;;;;;;5045311;28;20049;-55
2022/03/31 03:24:22;;;;;;;8.07;5.53;;;3.10;99.90;;;;;;5045226;28;20130;-58
2022/03/31 03:26:48;;;;;;;9.00;5.45;;;3.10;99.90;;;;;;5043160;28;20496;-56
2022/03/31 03:29:15;;;;;;;11.40;6.15;;;3.10;99.90;;;;;;5039070;28;20422;-56
2022/03/31 03:31:41;;;;;;;11.48;6.53;;;3.20;99.90;;;;;;5057114;28;20053;-56
2022/03/31 03:34:09;;;;;;;10.07;7.32;;;3.20;99.90;;;;;;5055738;28;20052;-56
2022/03/31 03:36:35;;;;;;;10.10;6.78;;;3.20;99.90;;;;;;5041866;28;20045;-56
2022/03/31 03:39:01;;;;;;;11.07;6.63;;;3.20;99.90;;;;;;5044105;28;20095;-56
2022/03/31 03:41:27;;;;;;;11.13;7.80;;;3.10;99.90;;;;;;5061030;28;20052;-56
2022/03/31 03:43:54;;;;;;;10.13;8.38;;;3.20;99.90;;;;;;5046377;28;20037;-56
2022/03/31 03:46:20;;;;;;;12.23;8.82;;;3.20;99.90;;;;;;5040303;28;20044;-57
2022/03/31 03:48:46;;;;;;;10.13;9.02;;;3.20;99.90;;;;;;5043294;28;20045;-57
2022/03/31 03:51:12;;;;;;;11.85;9.20;;;3.20;99.90;;;;;;5032897;28;20041;-56
2022/03/31 03:53:38;;;;;;;10.38;9.27;;;3.20;99.90;;;;;;5044310;28;20045;-56
2022/03/31 03:56:05;;;;;;;13.00;10.35;;;3.20;99.90;;;;;;5043395;28;20068;-56
2022/03/31 03:58:31;;;;;;;12.63;11.15;;;3.20;99.90;;;;;;5040613;28;20049;-57
2022/03/31 04:00:57;;;;;;;11.68;10.48;;;3.20;99.90;;;;;;5058013;28;20052;-57
2022/03/31 04:03:23;;;;;;;11.77;10.57;;;3.20;99.90;;;;;;5043131;28;20455;-57
2022/03/31 04:05:50;;;;;;;12.05;10.85;;;3.20;99.90;;;;;;5038047;28;20489;-57
2022/03/31 04:08:16;;;;;;;13.55;10.90;;;3.20;99.90;;;;;;5043181;28;20040;-59
2022/03/31 04:10:42;;;;;;;12.68;11.38;;;3.30;99.90;;;;;;5042379;28;20079;-58
2022/03/31 04:13:08;;;;;;;12.05;10.77;;;3.30;99.90;;;;;;5049068;28;20076;-58
2022/03/31 04:15:34;;;;;;;12.63;11.32;;;3.30;99.90;;;;;;5043032;28;20059;-57
2022/03/31 04:18:00;;;;;;;12.25;11.05;;;3.30;99.90;;;;;;5044256;28;20064;-58
2022/03/31 04:20:26;;;;;;;12.93;11.55;;;3.30;99.90;;;;;;5042492;28;20223;-57
2022/03/31 04:22:52;;;;;;;12.02;10.82;;;3.30;99.90;;;;;;5049126;28;20052;-57
2022/03/31 04:25:19;;;;;;;12.38;11.18;;;3.30;99.90;;;;;;5034715;28;20045;-57
2022/03/31 04:27:45;;;;;;;11.60;10.48;;;3.40;99.90;;;;;;5050555;28;20500;-57
2022/03/31 04:30:13;;;;;;;12.18;10.88;;;3.20;99.90;;;;;;5040216;28;20420;-57
2022/03/31 04:32:39;;;;;;;10.45;9.45;;;3.30;99.90;;;;;;5042434;28;20114;-57
2022/03/31 04:35:06;;;;;;;11.65;10.45;;;3.20;99.90;;;;;;5050380;28;20049;-58
2022/03/31 04:37:34;;;;;;;10.50;9.52;;;3.30;99.90;;;;;;5052536;28;20101;-57
2022/03/31 04:40:02;;;;;;;10.38;9.30;;;3.30;99.90;;;;;;5050342;28;20488;-57
2022/03/31 04:42:28;;;;;;;10.18;9.18;;;3.20;99.90;;;;;;5053628;28;20049;-57
2022/03/31 04:44:55;;;;;;;10.27;9.27;;;3.20;99.90;;;;;;5053948;28;20110;-59
2022/03/31 04:47:21;;;;;;;10.15;9.10;;;3.10;99.90;;;;;;5056178;28;20508;-59
2022/03/31 04:49:48;;;;;;;10.60;9.48;;;3.20;99.90;;;;;;5031846;28;20056;-58
2022/03/31 04:52:15;;;;;;;9.40;8.50;;;3.10;99.90;;;;;;5024429;28;20045;-59
2022/03/31 04:54:43;;;;;;;9.05;8.15;;;3.10;99.90;;;;;;5059111;28;20083;-59
2022/03/31 04:57:14;;;;;;;9.73;8.73;;;3.00;99.90;;;;;;5045646;28;20041;-59
2022/03/31 04:59:41;;;;;;;10.07;9.07;;;3.00;99.90;;;;;;5048801;28;20052;-59
2022/03/31 05:02:07;;;;;;;9.82;8.88;;;3.00;99.90;;;;;;5046266;28;20059;-59
2022/03/31 05:04:34;;;;;;;9.20;8.23;;;3.10;99.90;;;;;;5009580;28;20218;-58
2022/03/31 05:07:00;;;;;;;9.48;8.57;;;3.00;99.90;;;;;;5052967;28;20141;-59
2022/03/31 05:09:26;;;;;;;9.38;8.45;;;3.00;99.90;;;;;;5004552;28;20474;-59
2022/03/31 05:11:52;;;;;;;10.32;9.27;;;3.00;99.90;;;;;;5043777;28;20208;-59
2022/03/31 05:14:18;;;;;;;10.40;9.32;;;3.00;99.90;;;;;;5051017;28;20036;-59
2022/03/31 05:16:44;;;;;;;9.57;8.65;;;3.00;99.90;;;;;;5042480;28;20051;-58
2022/03/31 05:19:11;;;;;;;9.00;8.10;;;3.00;99.90;;;;;;5049649;28;20082;-59
2022/03/31 05:21:38;;;;;;;8.88;7.97;;;3.00;99.90;;;;;;5050455;28;20045;-59
2022/03/31 05:24:05;;;;;;;8.70;7.82;;;2.90;99.90;;;;;;5058815;28;20946;-59
2022/03/31 05:26:31;;;;;;;9.65;8.65;;;2.90;99.90;;;;;;5073835;28;20512;-58
2022/03/31 05:28:57;;;;;;;10.02;8.73;;;2.90;99.90;;;;;;5055363;28;20504;-59
2022/03/31 05:31:23;;;;;;;10.88;9.82;;;3.00;99.90;;;;;;5057376;28;20045;-59
2022/03/31 05:33:49;;;;;;;10.00;9.00;;;3.00;99.90;;;;;;5041630;28;20505;-59
2022/03/31 05:36:15;;;;;;;9.57;8.60;;;3.10;99.90;;;;;;5068941;28;20549;-59
2022/03/31 05:38:41;;;;;;;10.45;9.45;;;3.10;99.90;;;;;;5055440;28;20048;-59
2022/03/31 05:41:07;;;;;;;10.23;9.23;;;3.10;99.90;;;;;;5044209;28;20048;-59
2022/03/31 05:43:34;;;;;;;10.18;9.18;;;3.00;99.90;;;;;;5027843;28;20494;-58
2022/03/31 05:46:00;;;;;;;10.45;9.45;;;3.00;99.90;;;;;;5035555;28;20049;-59
2022/03/31 05:48:26;;;;;;;12.57;10.48;;;3.00;99.90;;;;;;5036200;28;20045;-58
2022/03/31 05:50:52;;;;;;;11.93;10.18;;;3.00;99.90;;;;;;5043497;28;20463;-58
2022/03/31 05:53:18;;;;;;;11.50;10.40;;;3.00;99.90;;;;;;5050236;28;20400;-59
2022/03/31 05:55:45;;;;;;;11.75;10.65;;;3.00;99.90;;;;;;5054410;28;20052;-59
2022/03/31 05:58:11;;;;;;;12.55;10.80;;;3.10;99.90;;;;;;5055806;28;20115;-59
2022/03/31 06:00:37;;;;;;;12.55;11.13;;;3.10;99.90;;;;;;5048037;28;20040;-59
2022/03/31 06:03:03;;;;;;;12.15;10.93;;;3.10;99.90;;;;;;5047257;28;20388;-58
2022/03/31 06:05:29;;;;;;;12.52;11.23;;;3.10;99.90;;;;;;5043088;28;20078;-59
2022/03/31 06:07:55;;;;;;;12.55;11.45;;;3.20;99.90;;;;;;5016114;28;20045;-60
2022/03/31 06:10:22;;;;;;;13.32;11.93;;;3.20;99.90;;;;;;5055075;28;20138;-59
2022/03/31 06:12:48;;;;;;;17.67;15.82;;;3.20;99.90;;;;;;5039473;28;20052;-59
2022/03/31 06:15:17;;;;;;;13.52;12.23;;;3.30;99.90;;;;;;5042451;28;20048;-59
2022/03/31 06:17:45;;;;;;;14.05;12.68;;;3.30;99.90;;;;;;5023842;28;20198;-59
2022/03/31 06:20:12;;;;;;;13.77;12.38;;;3.30;99.90;;;;;;5057070;28;20040;-59
2022/03/31 06:22:38;;;;;;;14.75;13.35;;;3.30;99.90;;;;;;5025947;28;20053;-59
2022/03/31 06:25:06;;;;;;;15.35;13.88;;;3.30;99.90;;;;;;5036834;28;20583;-55
2022/03/31 06:27:34;;;;;;;14.63;13.23;;;3.30;99.90;;;;;;5040441;28;20119;-56
2022/03/31 06:30:00;;;;;;;13.93;12.63;;;3.30;99.90;;;;;;5040172;28;20048;-56
2022/03/31 06:32:26;;;;;;;16.90;15.23;;;3.40;99.90;;;;;;5040711;28;20045;-58
2022/03/31 06:34:52;;;;;;;14.00;12.60;;;3.30;99.90;;;;;;5037848;28;20118;-56
2022/03/31 06:37:20;;;;;;;14.13;12.82;;;3.30;99.90;;;;;;5056527;28;20049;-56
2022/03/31 06:39:46;;;;;;;17.40;15.55;;;3.40;99.90;;;;;;5040265;28;20606;-57
2022/03/31 06:42:12;;;;;;;12.82;11.63;;;3.40;99.90;;;;;;5055520;28;20474;-56
2022/03/31 06:44:39;;;;;;;14.05;12.77;;;3.40;99.90;;;;;;5041421;28;20049;-55
2022/03/31 06:47:05;;;;;;;16.48;14.88;;;3.40;99.90;;;;;;5043548;28;20076;-53
2022/03/31 06:49:34;;;;;;;14.75;13.35;;;3.40;99.90;;;;;;5050634;28;20505;-57
2022/03/31 06:52:00;;;;;;;15.18;13.73;;;3.50;99.90;;;;;;5037959;28;20608;-55
2022/03/31 06:54:26;;;;;;;13.63;12.32;;;3.50;99.90;;;;;;5030546;28;20045;-58
2022/03/31 06:56:53;;;;;;;16.05;14.50;;;3.50;99.90;;;;;;5026064;28;20087;-57
2022/03/31 06:59:21;;;;;;;14.77;13.38;;;3.50;99.90;;;;;;5047262;28;20574;-56
2022/03/31 07:01:48;;;;;;;16.92;15.25;;;3.60;99.90;;;;;;5042051;28;20057;-57
2022/03/31 07:04:15;;;;;;;14.30;13.00;;;3.60;99.90;;;;;;5029481;28;20044;-57
2022/03/31 07:06:41;;;;;;;13.57;12.27;;;3.60;99.90;;;;;;5050381;28;20392;-57
2022/03/31 07:09:07;;;;;;;13.55;12.25;;;3.60;99.90;;;;;;5042005;28;20060;-56
2022/03/31 07:11:34;;;;;;;16.08;14.50;;;3.60;99.90;;;;;;5040455;28;20506;-57
2022/03/31 07:14:01;;;;;;;16.05;14.55;;;3.60;99.90;;;;;;5018145;28;20041;-58
2022/03/31 07:16:29;;;;;;;17.95;16.13;;;3.50;99.90;;;;;;5053967;28;20040;-55
2022/03/31 07:18:55;;;;;;;14.13;12.82;;;3.60;99.90;;;;;;5061894;28;20485;-56
2022/03/31 07:21:23;;;;;;;16.58;14.98;;;3.60;99.90;;;;;;5047054;28;20462;-55
2022/03/31 07:23:51;;;;;;;14.52;13.07;;;3.60;99.90;;;;;;5041600;28;20052;-54
2022/03/31 07:26:18;;;;;;;13.88;12.57;;;3.60;99.90;;;;;;5055083;28;20384;-56
2022/03/31 07:28:44;;;;;;;14.52;13.13;;;3.60;99.90;;;;;;5062740;28;20128;-55
2022/03/31 07:31:10;;;;;;;15.80;14.20;;;3.60;99.90;;;;;;5050553;28;20045;-54
2022/03/31 07:33:36;;;;;;;15.00;13.60;;;3.60;99.90;;;;;;5047181;28;20136;-57
2022/03/31 07:36:03;;;;;;;17.33;15.68;;;3.60;99.90;;;;;;5040141;28;20157;-55
2022/03/31 07:38:29;;;;;;;17.48;15.77;;;3.60;99.90;;;;;;5064841;28;20144;-57
2022/03/31 07:40:55;;;;;;;22.70;18.38;;;3.60;99.90;;;;;;5027981;28;20041;-57
2022/03/31 07:43:22;;;;;;;17.02;15.43;;;3.60;99.90;;;;;;5050023;28;20049;-55
2022/03/31 07:45:48;;;;;;;17.80;16.10;;;3.70;99.90;;;;;;5047226;28;20041;-57
2022/03/31 07:48:16;;;;;;;20.77;18.50;;;3.70;99.90;;;;;;5030068;28;20057;-57
2022/03/31 07:50:42;;;;;;;25.80;23.02;;;3.80;99.90;;;;;;5042456;28;20049;-55
2022/03/31 07:53:10;;;;;;;19.60;17.60;;;3.70;99.90;;;;;;5042699;28;20079;-56
2022/03/31 07:55:37;;;;;;;18.73;16.92;;;3.70;99.90;;;;;;5045119;28;20040;-59
2022/03/31 07:58:04;;;;;;;17.25;15.63;;;3.70;99.90;;;;;;5027105;28;20045;-56
2022/03/31 08:00:30;;;;;;;20.15;18.02;;;3.80;99.90;;;;;;5040775;28;20045;-57
2022/03/31 08:02:59;;;;;;;16.60;14.98;;;3.70;99.90;;;;;;5045441;28;20574;-57
2022/03/31 08:05:30;;;;;;;16.60;15.00;;;3.70;99.90;;;;;;5042543;28;20045;-60
2022/03/31 08:07:57;;;;;;;46.30;39.40;;;3.70;99.90;;;;;;5042469;28;20083;-60
2022/03/31 08:10:24;;;;;;;19.40;17.40;;;3.70;99.90;;;;;;5062087;28;20053;-59
2022/03/31 08:12:50;;;;;;;19.05;17.17;;;3.70;99.90;;;;;;5041417;28;20049;-59
2022/03/31 08:15:18;;;;;;;19.63;17.75;;;3.60;99.90;;;;;;5057721;28;20086;-60
2022/03/31 08:17:46;;;;;;;20.15;18.13;;;3.70;99.90;;;;;;5043034;28;20123;-60
2022/03/31 08:20:13;;;;;;;19.05;17.23;;;3.60;99.90;;;;;;5043172;28;20044;-59
2022/03/31 08:22:40;;;;;;;28.00;24.92;;;3.60;99.90;;;;;;5026965;28;20531;-57
2022/03/31 08:25:08;;;;;;;18.52;16.73;;;3.70;99.90;;;;;;5045200;28;20527;-56
2022/03/31 08:27:35;;;;;;;18.55;16.77;;;3.60;99.90;;;;;;5025331;28;20033;-58
2022/03/31 08:30:08;;;;;;;20.52;18.58;;;3.60;99.90;;;;;;5043295;28;20041;-57
2022/03/31 08:32:39;;;;;;;24.23;21.63;;;3.60;99.90;;;;;;5045333;28;20053;-55
2022/03/31 08:35:11;;;;;;;20.10;18.10;;;3.60;99.90;;;;;;5045069;28;20041;-56
2022/03/31 08:37:37;;;;;;;22.15;19.92;;;3.60;99.90;;;;;;5043215;28;20842;-56
2022/03/31 08:40:06;;;;;;;18.95;17.05;;;3.60;99.90;;;;;;5042697;28;20135;-56
2022/03/31 08:42:32;;;;;;;19.60;17.60;;;3.60;99.90;;;;;;5026733;28;20057;-56
2022/03/31 08:44:59;;;;;;;20.20;18.20;;;3.60;99.90;;;;;;5027265;28;20227;-56
2022/03/31 08:47:27;;;;;;;20.73;18.65;;;3.70;99.90;;;;;;5043771;28;20053;-57
2022/03/31 08:49:57;;;;;;;18.27;16.38;;;3.60;99.90;;;;;;5026789;28;20048;-56
2022/03/31 08:52:24;;;;;;;21.13;18.95;;;3.70;99.90;;;;;;5044671;28;20099;-56
2022/03/31 08:54:50;;;;;;;19.83;17.75;;;3.70;99.90;;;;;;5044454;28;20116;-59
2022/03/31 08:57:17;;;;;;;18.92;17.02;;;3.70;99.90;;;;;;5045818;28;20470;-59
2022/03/31 08:59:43;;;;;;;15.70;14.20;;;3.70;99.90;;;;;;5045240;28;20052;-56
2022/03/31 09:02:24;;;;;;;16.75;15.05;;;3.70;99.90;;;;;;5044532;28;20085;-57
2022/03/31 09:05:05;;;;;;;15.13;13.65;;;3.70;99.90;;;;;;5045347;28;20389;-55
2022/03/31 09:07:31;;;;;;;20.77;18.58;;;3.70;99.90;;;;;;5043087;28;20045;-56
2022/03/31 09:09:57;;;;;;;14.48;13.00;;;3.70;99.90;;;;;;5044782;28;20049;-59
2022/03/31 09:12:26;;;;;;;14.32;12.82;;;3.70;99.90;;;;;;5043836;28;20136;-59
2022/03/31 09:14:54;;;;;;;14.93;12.60;;;3.70;99.90;;;;;;5044410;28;20041;-60
2022/03/31 09:17:20;;;;;;;19.55;17.50;;;3.70;99.90;;;;;;5043495;28;20059;-60
2022/03/31 09:19:46;;;;;;;15.85;14.30;;;3.60;99.90;;;;;;5042671;28;20053;-56
2022/03/31 09:22:12;;;;;;;13.52;12.23;;;3.50;99.90;;;;;;5043028;28;20067;-60
2022/03/31 09:24:39;;;;;;;15.05;13.52;;;3.50;99.90;;;;;;5044137;28;20493;-60
2022/03/31 09:27:06;;;;;;;14.38;12.98;;;3.50;99.90;;;;;;5044716;28;20515;-60
2022/03/31 09:29:33;;;;;;;14.18;12.68;;;3.40;99.90;;;;;;5045217;28;20515;-56
2022/03/31 09:32:11;;;;;;;12.45;11.25;;;3.40;99.90;;;;;;5042923;28;20053;-55
2022/03/31 09:34:43;;;;;;;11.50;10.35;;;3.30;99.90;;;;;;5044803;28;20435;-56
2022/03/31 09:37:10;;;;;;;11.77;10.50;;;3.30;99.90;;;;;;5043325;28;20651;-55
2022/03/31 09:39:37;;;;;;;12.82;11.50;;;3.30;99.90;;;;;;5043818;28;20532;-56
2022/03/31 09:42:13;;;;;;;9.40;8.50;;;3.20;99.90;;;;;;5043716;28;20375;-56
2022/03/31 09:44:42;;;;;;;9.15;7.55;;;3.20;99.90;;;;;;5043968;28;20053;-58
2022/03/31 09:47:10;;;;;;;7.32;6.13;;;3.20;99.90;;;;;;5043600;28;20067;-56
2022/03/31 09:49:37;;;;;;;9.80;7.93;;;3.10;99.90;;;;;;5026003;28;20580;-56
2022/03/31 09:52:09;;;;;;;6.22;5.55;;;3.10;99.90;;;;;;5058453;28;20138;-57
2022/03/31 09:54:36;;;;;;;6.78;5.78;;;3.10;99.90;;;;;;5044202;28;20037;-55
2022/03/31 09:57:06;;;;;;;7.45;5.43;;;3.10;99.90;;;;;;5043755;28;20700;-56
2022/03/31 09:59:38;;;;;;;6.32;5.22;;;3.10;99.90;;;;;;5042480;28;20045;-56
2022/03/31 10:02:05;;;;;;;6.32;5.47;;;3.20;99.90;;;;;;5042139;28;20061;-56
2022/03/31 10:04:32;;;;;;;7.82;6.75;;;3.20;99.90;;;;;;5044151;28;20122;-53
2022/03/31 10:06:59;;;;;;;7.18;6.47;;;3.20;99.90;;;;;;5042787;28;20052;-56
2022/03/31 10:09:25;;;;;;;6.65;5.95;;;3.20;99.90;;;;;;5021509;28;20049;-56
2022/03/31 10:12:05;;;;;;;6.70;5.97;;;3.10;99.90;;;;;;5033225;28;20045;-56
2022/03/31 10:14:37;;;;;;;8.40;7.53;;;3.20;99.90;;;;;;5042352;28;20059;-56
2022/03/31 10:17:08;;;;;;;;;;;3.20;99.90;;;;;;5043666;28;20064;-54
2022/03/31 10:19:36;;;;;;;8.20;7.38;;;3.20;99.90;;;;;;5025063;28;19920;-57
2022/03/31 10:25:09;;;;;;;7.13;6.43;;;3.20;99.90;;;;;;5025214;28;20052;-56
2022/03/31 10:27:39;;;;;;;8.95;8.00;;;3.20;99.90;;;;;;5041874;28;20056;-56
2022/03/31 10:30:10;;;;;;;7.28;6.47;;;3.20;99.90;;;;;;5041266;28;20059;-55
2022/03/31 10:32:36;;;;;;;9.43;8.43;;;3.10;99.90;;;;;;5033760;28;20497;-56
2022/03/31 10:35:02;;;;;;;7.78;6.97;;;3.10;99.90;;;;;;5041203;28;20612;-55
2022/03/31 10:37:37;;;;;;;7.40;6.55;;;3.00;99.90;;;;;;5041453;28;20227;-56
2022/03/31 10:40:07;;;;;;;7.95;7.15;;;3.10;99.90;;;;;;5041378;28;20480;-55
2022/03/31 10:42:33;;;;;;;6.95;6.05;;;3.00;99.90;;;;;;5008639;28;20106;-55
2022/03/31 10:45:05;;;;;;;6.88;6.15;;;2.80;99.90;;;;;;5042407;28;20197;-56
2022/03/31 10:47:33;;;;;;;6.68;5.90;;;2.90;99.90;;;;;;5039967;28;20072;-57
2022/03/31 10:49:59;;;;;;;8.98;7.93;;;2.80;99.90;;;;;;5041000;28;20051;-57
2022/03/31 10:52:26;;;;;;;12.23;10.80;;;2.70;99.90;;;;;;5039128;28;20049;-56
2022/03/31 10:55:19;;;;;;;8.82;7.93;;;2.70;99.90;;;;;;5038543;28;20466;-57
2022/03/31 10:57:45;;;;;;;;;;;2.70;99.90;;;;;;5052708;28;20048;-56
2022/03/31 11:00:17;;;;;;;9.60;8.60;;;2.60;99.90;;;;;;5055588;28;19927;-56
2022/03/31 11:02:46;;;;;;;8.43;6.95;;;2.50;99.90;;;;;;5040733;28;20052;-56
2022/03/31 11:05:12;;;;;;;9.70;7.93;;;2.50;99.90;;;;;;5011298;28;20044;-56
2022/03/31 11:07:39;;;;;;;8.35;7.43;;;2.50;99.90;;;;;;5041448;28;20052;-55
2022/03/31 11:10:17;;;;;;;8.98;7.25;;;2.50;99.90;;;;;;5048059;28;20590;-54
2022/03/31 11:12:43;;;;;;;9.48;8.18;;;2.50;99.90;;;;;;5042053;28;20131;-55
2022/03/31 11:15:16;;;;;;;15.13;12.65;;;2.50;99.90;;;;;;5037192;28;20048;-56
2022/03/31 11:17:43;;;;;;;11.43;10.07;;;2.50;99.90;;;;;;5040175;28;20045;-54
2022/03/31 11:20:21;;;;;;;9.60;8.25;;;2.60;99.90;;;;;;5039859;28;20527;-55
2022/03/31 11:22:59;;;;;;;8.15;7.07;;;2.50;99.90;;;;;;5054388;28;20555;-55
2022/03/31 11:25:26;;;;;;;11.27;7.80;;;2.40;99.90;;;;;;5062265;28;20534;-54
2022/03/31 11:27:58;;;;;;;10.20;8.77;;;2.40;99.90;;;;;;5033402;28;20033;-59
2022/03/31 11:30:29;;;;;;;7.07;6.38;;;2.30;99.90;;;;;;5027296;28;20190;-60
2022/03/31 11:32:56;;;;;;;8.70;7.77;;;2.30;99.90;;;;;;5042443;28;20120;-60
2022/03/31 11:35:25;;;;;;;9.95;8.15;;;2.30;99.90;;;;;;5041153;28;20136;-60
2022/03/31 11:37:54;;;;;;;10.07;8.35;;;2.20;99.90;;;;;;5041386;28;20573;-60
2022/03/31 11:40:35;;;;;;;8.13;7.20;;;2.20;99.90;;;;;;5020142;28;20518;-53
2022/03/31 11:43:05;;;;;;;9.85;8.80;;;2.20;99.90;;;;;;5036877;28;20121;-55
2022/03/31 11:45:45;;;;;;;10.43;8.00;;;2.20;99.90;;;;;;5048850;28;20551;-53
2022/03/31 11:48:13;;;;;;;10.13;9.02;;;2.20;99.90;;;;;;5053319;28;20045;-53
2022/03/31 11:51:03;;;;;;;7.75;6.93;;;2.20;99.90;;;;;;5037990;28;20349;-53
2022/03/31 11:53:39;;;;;;;9.18;8.18;;;2.20;99.90;;;;;;5039473;28;20099;-53
2022/03/31 11:56:10;;;;;;;11.85;9.95;;;2.20;99.90;;;;;;5034200;28;20091;-53
2022/03/31 11:58:48;;;;;;;9.57;8.00;;;2.20;99.90;;;;;;5033021;28;20049;-54
2022/03/31 12:01:21;;;;;;;10.02;8.98;;;2.20;99.90;;;;;;5036976;28;20079;-55
2022/03/31 12:03:47;;;;;;;9.80;8.80;;;2.20;99.90;;;;;;5038165;28;20371;-54
2022/03/31 12:06:14;;;;;;;9.95;7.80;;;2.20;99.90;;;;;;5041832;28;20158;-53
2022/03/31 12:08:42;;;;;;;11.32;10.10;;;2.20;99.90;;;;;;5046347;28;20121;-54
2022/03/31 12:11:09;;;;;;;9.38;8.48;;;2.20;99.90;;;;;;5037983;28;20076;-56
2022/03/31 12:13:50;;;;;;;14.70;12.80;;;2.20;99.90;;;;;;5038760;28;20408;-54
2022/03/31 12:16:17;;;;;;;12.70;11.35;;;2.30;99.90;;;;;;5038796;28;20052;-54
2022/03/31 12:18:44;;;;;;;16.92;15.10;;;2.30;99.90;;;;;;5044418;28;20049;-54
2022/03/31 12:21:10;;;;;;;15.63;13.13;;;2.30;99.90;;;;;;5050689;28;20049;-53
2022/03/31 12:23:42;;;;;;;14.85;12.55;;;2.30;99.90;;;;;;5050848;28;20051;-54
2022/03/31 12:26:18;;;;;;;17.05;15.20;;;2.30;99.90;;;;;;5049934;28;20044;-54
2022/03/31 12:28:46;;;;;;;15.88;14.02;;;2.40;99.90;;;;;;5048912;28;20523;-54
2022/03/31 12:31:29;;;;;;;15.18;13.68;;;2.50;99.90;;;;;;5031137;28;20136;-52
2022/03/31 12:33:57;;;;;;;17.42;15.55;;;2.50;99.90;;;;;;5050485;28;20066;-53
2022/03/31 12:36:25;;;;;;;16.05;14.45;;;2.50;99.90;;;;;;5049585;28;20492;-55
2022/03/31 12:38:54;;;;;;;15.77;14.18;;;2.50;99.90;;;;;;5062408;28;20049;-55
2022/03/31 12:41:36;;;;;;;26.23;23.38;;;2.60;99.90;;;;;;5031063;28;20516;-55
2022/03/31 12:44:12;;;;;;;19.45;17.42;;;2.60;99.90;;;;;;5046103;28;20049;-54
2022/03/31 12:46:43;;;;;;;20.05;17.90;;;2.60;99.90;;;;;;5039884;28;20056;-53
2022/03/31 12:49:12;;;;;;;27.33;24.00;;;2.60;99.90;;;;;;5042856;28;20136;-53
2022/03/31 12:51:48;;;;;;;21.95;19.75;;;2.60;99.90;;;;;;5046117;28;20470;-55
2022/03/31 12:54:29;;;;;;;25.60;22.83;;;2.70;99.90;;;;;;5041716;28;20048;-54
2022/03/31 12:57:05;;;;;;;24.70;21.70;;;2.70;99.90;;;;;;5043534;28;20532;-52
2022/03/31 12:59:36;;;;;;;25.42;22.73;;;2.80;99.90;;;;;;5039317;28;20065;-56